Time;durP1;ratioP1;P1;durP2;ratioP2;P2;SDS_P1;SDS_P2;PMS_P1;PMS_P2;Temp;Humidity;BMP_temperature;BMP_pressure;BME280_temperature;BME280_humidity;BME280_pressure;Samples;Min_cycle;Max_cycle;Signal;HPM_P1;HPM_P2
2022/01/05 00:01:41;;;;;;;0.60;0.40;;;7.40;1.00;;;;;;5112647;28;20434;-75
2022/01/05 00:04:09;;;;;;;1.33;0.70;;;7.40;1.00;;;;;;5114125;28;20466;-74
2022/01/05 00:06:39;;;;;;;0.50;0.10;;;7.40;1.00;;;;;;5115328;28;20828;-75
2022/01/05 00:09:07;;;;;;;0.93;0.70;;;7.50;1.00;;;;;;5108078;28;20444;-75
2022/01/05 00:11:39;;;;;;;0.70;0.60;;;7.50;1.00;;;;;;5113481;28;20477;-75
2022/01/05 00:14:06;;;;;;;3.17;1.27;;;7.50;1.00;;;;;;5115233;28;20538;-75
2022/01/05 00:16:34;;;;;;;0.50;0.30;;;7.50;1.00;;;;;;5122442;28;20474;-74
2022/01/05 00:19:02;;;;;;;0.50;0.10;;;7.50;1.00;;;;;;5114652;27;20452;-74
2022/01/05 00:21:30;;;;;;;0.87;0.47;;;7.50;1.00;;;;;;5116035;28;20439;-75
2022/01/05 00:23:59;;;;;;;0.50;0.10;;;7.50;1.00;;;;;;5096307;27;20447;-75
2022/01/05 00:26:27;;;;;;;0.50;0.20;;;7.50;1.00;;;;;;5094880;28;20467;-74
2022/01/05 00:28:56;;;;;;;0.50;0.10;;;7.60;1.00;;;;;;5095692;28;20481;-74
2022/01/05 00:31:24;;;;;;;0.50;0.10;;;7.60;1.00;;;;;;5095011;28;20989;-74
2022/01/05 00:33:53;;;;;;;1.77;1.43;;;7.60;1.00;;;;;;5098420;28;20937;-76
2022/01/05 00:36:21;;;;;;;0.50;0.10;;;7.60;1.00;;;;;;5114529;28;20809;-76
2022/01/05 00:38:49;;;;;;;0.50;0.10;;;7.60;1.00;;;;;;5105898;28;20451;-75
2022/01/05 00:41:19;;;;;;;0.50;0.17;;;7.70;1.00;;;;;;5094323;28;20447;-75
2022/01/05 00:43:47;;;;;;;0.60;0.37;;;7.70;1.00;;;;;;5094290;28;20941;-75
2022/01/05 00:46:14;;;;;;;0.50;0.10;;;7.70;1.00;;;;;;5098173;28;20463;-75
2022/01/05 00:48:42;;;;;;;0.50;0.10;;;7.70;1.00;;;;;;5099884;28;20479;-75
2022/01/05 00:51:11;;;;;;;0.60;0.40;;;7.70;1.00;;;;;;5095175;28;20440;-75
2022/01/05 00:53:39;;;;;;;1.87;0.83;;;7.70;1.00;;;;;;5095546;28;20797;-75
2022/01/05 00:56:07;;;;;;;0.50;0.20;;;7.70;1.00;;;;;;5093946;28;20474;-75
2022/01/05 00:58:36;;;;;;;7.87;7.33;;;7.70;1.00;;;;;;5096729;28;20452;-76
2022/01/05 01:01:04;;;;;;;0.50;0.20;;;7.60;1.00;;;;;;5105075;28;20544;-76
2022/01/05 01:03:32;;;;;;;0.50;0.20;;;7.70;1.00;;;;;;5094463;28;20443;-75
2022/01/05 01:06:00;;;;;;;8.93;8.03;;;7.60;1.00;;;;;;5093835;28;20459;-75
2022/01/05 01:08:28;;;;;;;0.50;0.10;;;7.60;1.00;;;;;;5094173;28;20955;-75
2022/01/05 01:10:56;;;;;;;1.47;1.37;;;7.70;1.00;;;;;;5103499;28;20445;-75
2022/01/05 01:13:25;;;;;;;0.57;0.30;;;7.70;1.00;;;;;;5114082;28;20483;-76
2022/01/05 01:15:54;;;;;;;1.10;0.20;;;7.70;1.00;;;;;;5113766;28;20851;-75
2022/01/05 01:18:22;;;;;;;0.50;0.10;;;7.70;1.00;;;;;;5115922;28;20878;-75
2022/01/05 01:20:50;;;;;;;2.10;2.00;;;7.70;1.00;;;;;;5118460;28;20451;-75
2022/01/05 01:23:22;;;;;;;0.50;0.10;;;7.60;1.00;;;;;;5120398;28;20430;-73
2022/01/05 01:25:50;;;;;;;0.90;0.20;;;7.60;1.00;;;;;;5100879;28;20471;-73
2022/01/05 01:28:19;;;;;;;0.50;0.20;;;7.50;1.00;;;;;;5098329;28;21018;-74
2022/01/05 01:30:47;;;;;;;0.60;0.33;;;7.50;1.00;;;;;;5095779;28;20810;-75
2022/01/05 01:33:18;;;;;;;0.90;0.73;;;7.50;1.00;;;;;;5093379;28;20570;-75
2022/01/05 01:35:46;;;;;;;0.50;0.10;;;7.50;1.00;;;;;;5093134;28;20465;-75
2022/01/05 01:38:13;;;;;;;0.60;0.40;;;7.50;1.00;;;;;;5094827;28;20445;-75
2022/01/05 01:40:41;;;;;;;0.80;0.53;;;7.60;1.00;;;;;;5098526;28;20450;-74
2022/01/05 01:43:09;;;;;;;0.50;0.10;;;7.60;1.00;;;;;;5096519;28;20531;-75
2022/01/05 01:45:37;;;;;;;0.60;0.20;;;7.60;1.00;;;;;;5092863;28;20556;-74
2022/01/05 01:48:05;;;;;;;0.50;0.10;;;7.50;1.00;;;;;;5093447;28;20485;-75
2022/01/05 01:50:35;;;;;;;1.00;0.40;;;7.50;1.00;;;;;;5093930;28;20527;-74
2022/01/05 01:53:03;;;;;;;0.50;0.10;;;7.50;1.00;;;;;;5106582;28;20514;-74
2022/01/05 01:55:31;;;;;;;0.60;0.37;;;7.50;1.00;;;;;;5113108;28;20976;-74
2022/01/05 01:58:00;;;;;;;1.87;1.03;;;7.50;1.00;;;;;;5113430;28;20457;-74
2022/01/05 02:00:29;;;;;;;0.70;0.20;;;7.50;1.00;;;;;;5113104;28;20476;-74
2022/01/05 02:02:57;;;;;;;1.37;1.13;;;7.50;1.00;;;;;;5113519;28;20442;-73
2022/01/05 02:05:25;;;;;;;0.50;0.20;;;7.60;1.00;;;;;;5112008;28;21017;-74
2022/01/05 02:07:54;;;;;;;1.00;0.47;;;7.60;1.00;;;;;;5112322;28;20443;-74
2022/01/05 02:10:22;;;;;;;0.50;0.20;;;7.60;1.00;;;;;;5112697;28;20453;-74
2022/01/05 02:12:50;;;;;;;1.30;0.20;;;7.50;1.00;;;;;;5112921;28;20836;-74
2022/01/05 02:15:18;;;;;;;1.47;0.30;;;7.50;1.00;;;;;;5112830;28;20474;-74
2022/01/05 02:17:55;;;;;;;0.50;0.10;;;7.60;1.00;;;;;;5113137;28;20452;-74
2022/01/05 02:20:25;;;;;;;0.77;0.40;;;7.60;1.00;;;;;;5113683;28;20477;-75
2022/01/05 02:22:55;;;;;;;2.13;2.00;;;7.60;1.00;;;;;;5113740;28;20458;-73
2022/01/05 02:25:23;;;;;;;0.50;0.23;;;7.60;1.00;;;;;;5112950;28;20973;-75
2022/01/05 02:27:54;;;;;;;0.60;0.40;;;7.60;1.00;;;;;;5110762;28;20448;-74
2022/01/05 02:30:25;;;;;;;0.50;0.10;;;7.50;1.00;;;;;;5092132;28;20440;-76
2022/01/05 02:32:53;;;;;;;0.50;0.10;;;7.50;1.00;;;;;;5092228;28;20520;-75
2022/01/05 02:35:22;;;;;;;1.23;0.77;;;7.50;1.00;;;;;;5110736;28;20471;-75
2022/01/05 02:37:52;;;;;;;0.93;0.30;;;7.40;1.00;;;;;;5115914;28;20454;-75
2022/01/05 02:40:23;;;;;;;0.90;0.30;;;7.10;1.00;;;;;;5124136;28;20441;-75
2022/01/05 02:42:53;;;;;;;0.50;0.10;;;7.00;1.00;;;;;;5112419;28;20437;-75
2022/01/05 02:45:21;;;;;;;0.83;0.40;;;6.90;1.00;;;;;;5112129;28;20466;-75
2022/01/05 02:47:50;;;;;;;0.50;0.10;;;6.80;1.00;;;;;;5105195;28;20545;-75
2022/01/05 02:50:17;;;;;;;0.90;0.50;;;6.70;1.00;;;;;;5091870;28;20447;-75
2022/01/05 02:52:46;;;;;;;0.50;0.10;;;6.50;1.00;;;;;;5092077;28;20478;-75
2022/01/05 02:55:14;;;;;;;0.50;0.10;;;6.50;1.00;;;;;;5091702;28;20577;-75
2022/01/05 02:57:43;;;;;;;0.50;0.17;;;6.50;1.00;;;;;;5097139;28;20453;-75
2022/01/05 03:00:13;;;;;;;0.50;0.10;;;6.50;1.00;;;;;;5112265;28;21107;-75
2022/01/05 03:02:41;;;;;;;0.50;0.10;;;6.50;1.00;;;;;;5111793;28;20532;-74
2022/01/05 03:05:10;;;;;;;0.60;0.50;;;6.50;1.00;;;;;;5112042;28;20457;-74
2022/01/05 03:07:39;;;;;;;0.50;0.10;;;6.50;1.00;;;;;;5112258;28;20460;-74
2022/01/05 03:10:09;;;;;;;0.50;0.10;;;6.40;1.00;;;;;;5112325;28;20465;-75
2022/01/05 03:12:38;;;;;;;0.50;0.20;;;6.30;1.00;;;;;;5112276;28;20477;-74
2022/01/05 03:15:09;;;;;;;0.50;0.10;;;6.30;1.00;;;;;;5109472;28;20491;-74
2022/01/05 03:17:37;;;;;;;0.50;0.10;;;6.30;1.00;;;;;;5109348;28;20453;-74
2022/01/05 03:20:06;;;;;;;0.50;0.10;;;6.30;1.00;;;;;;5112893;28;20437;-74
2022/01/05 03:22:34;;;;;;;0.50;0.10;;;6.20;1.00;;;;;;5117001;28;20812;-74
2022/01/05 03:25:02;;;;;;;0.50;0.10;;;6.20;1.00;;;;;;5115859;28;20464;-73
2022/01/05 03:27:30;;;;;;;0.50;0.10;;;6.20;1.00;;;;;;5116137;28;20943;-74
2022/01/05 03:29:58;;;;;;;0.50;0.20;;;6.20;1.00;;;;;;5115801;28;20449;-74
2022/01/05 03:32:34;;;;;;;0.60;0.30;;;6.10;1.00;;;;;;5115361;28;20441;-74
2022/01/05 03:35:05;;;;;;;0.50;0.20;;;6.00;1.00;;;;;;5116047;28;20462;-75
2022/01/05 03:37:32;;;;;;;0.50;0.20;;;6.00;1.00;;;;;;5115655;28;20453;-74
2022/01/05 03:40:00;;;;;;;0.50;0.10;;;5.90;1.00;;;;;;5116412;28;20456;-75
2022/01/05 03:42:28;;;;;;;0.50;0.10;;;5.90;1.00;;;;;;5116680;28;20457;-75
2022/01/05 03:44:56;;;;;;;0.50;0.20;;;6.00;1.00;;;;;;5095637;28;20475;-74
2022/01/05 03:47:24;;;;;;;0.57;0.33;;;6.00;1.00;;;;;;5098611;28;20497;-74
2022/01/05 03:49:53;;;;;;;1.10;0.93;;;5.80;1.00;;;;;;5100677;28;20537;-74
2022/01/05 03:52:21;;;;;;;0.60;0.30;;;5.80;1.00;;;;;;5099019;28;20453;-73
2022/01/05 03:54:49;;;;;;;0.60;0.30;;;5.80;1.00;;;;;;5098554;28;20496;-76
2022/01/05 03:57:16;;;;;;;0.70;0.30;;;5.70;1.00;;;;;;5111257;28;20502;-75
2022/01/05 03:59:44;;;;;;;0.50;0.10;;;5.70;1.00;;;;;;5109423;28;20729;-75
2022/01/05 04:02:12;;;;;;;0.50;0.20;;;5.60;1.00;;;;;;5114681;28;20454;-75
2022/01/05 04:04:40;;;;;;;0.50;0.10;;;5.70;1.00;;;;;;5114924;27;20489;-75
2022/01/05 04:07:09;;;;;;;0.50;0.10;;;5.70;1.00;;;;;;5115510;28;20438;-75
2022/01/05 04:09:37;;;;;;;0.50;0.10;;;5.70;1.00;;;;;;5115054;28;20544;-75
2022/01/05 04:12:13;;;;;;;0.50;0.20;;;5.80;1.00;;;;;;5114797;28;20453;-77
2022/01/05 04:14:42;;;;;;;0.50;0.10;;;5.80;1.00;;;;;;5114950;28;20853;-74
2022/01/05 04:17:10;;;;;;;0.50;0.10;;;5.80;1.00;;;;;;5107428;28;20540;-74
2022/01/05 04:19:37;;;;;;;0.50;0.10;;;5.80;1.00;;;;;;5109245;28;20529;-74
2022/01/05 04:22:08;;;;;;;0.50;0.10;;;5.80;1.00;;;;;;5108983;28;20444;-75
2022/01/05 04:24:36;;;;;;;0.50;0.10;;;5.80;1.00;;;;;;5113971;28;20443;-74
2022/01/05 04:27:04;;;;;;;0.50;0.10;;;5.80;1.00;;;;;;5115105;28;20441;-74
2022/01/05 04:29:32;;;;;;;0.50;0.10;;;5.80;1.00;;;;;;5114920;28;20448;-74
2022/01/05 04:32:06;;;;;;;0.50;0.10;;;5.80;1.00;;;;;;5106452;28;20453;-74
2022/01/05 04:34:34;;;;;;;0.50;0.10;;;5.90;1.00;;;;;;5114365;27;20477;-74
2022/01/05 04:37:23;;;;;;;0.50;0.10;;;5.80;1.00;;;;;;5114124;28;20446;-74
2022/01/05 04:39:51;;;;;;;0.50;0.10;;;5.90;1.00;;;;;;5110184;27;20438;-74
2022/01/05 04:42:19;;;;;;;0.50;0.10;;;5.90;1.00;;;;;;5114043;28;20441;-74
2022/01/05 04:44:47;;;;;;;0.60;0.10;;;5.90;1.00;;;;;;5113958;28;20470;-74
2022/01/05 04:47:15;;;;;;;0.50;0.10;;;5.90;1.00;;;;;;5114945;28;20516;-74
2022/01/05 04:49:43;;;;;;;0.77;0.77;;;5.90;1.00;;;;;;5114610;28;20445;-74
2022/01/05 04:52:11;;;;;;;0.50;0.10;;;5.90;1.00;;;;;;5095567;28;20460;-74
2022/01/05 04:54:40;;;;;;;0.50;0.10;;;5.90;1.00;;;;;;5095517;28;20494;-74
2022/01/05 04:57:08;;;;;;;0.50;0.20;;;5.80;1.00;;;;;;5096405;28;20450;-74
2022/01/05 04:59:36;;;;;;;0.50;0.10;;;5.70;1.00;;;;;;5096928;28;20454;-74
2022/01/05 05:02:05;;;;;;;0.70;0.40;;;5.70;1.00;;;;;;5116505;28;20433;-74
2022/01/05 05:04:32;;;;;;;0.50;0.10;;;5.60;1.00;;;;;;5114863;28;20449;-74
2022/01/05 05:07:01;;;;;;;0.70;0.37;;;5.50;1.00;;;;;;5114503;28;20452;-74
2022/01/05 05:09:28;;;;;;;0.97;0.57;;;5.60;1.00;;;;;;5119004;28;20448;-74
2022/01/05 05:11:58;;;;;;;0.50;0.10;;;5.50;1.00;;;;;;5115052;28;20969;-74
2022/01/05 05:14:26;;;;;;;0.50;0.20;;;5.40;1.00;;;;;;5114191;28;20480;-74
2022/01/05 05:16:53;;;;;;;0.50;0.17;;;5.40;1.00;;;;;;5120186;28;20452;-74
2022/01/05 05:19:21;;;;;;;0.60;0.50;;;5.40;1.00;;;;;;5096919;28;20478;-75
2022/01/05 05:21:49;;;;;;;0.50;0.20;;;5.40;1.00;;;;;;5094154;28;20434;-76
2022/01/05 05:24:17;;;;;;;1.87;1.27;;;5.30;1.00;;;;;;5093449;28;20443;-75
2022/01/05 05:26:45;;;;;;;1.40;0.70;;;5.20;1.00;;;;;;5093793;28;20445;-74
2022/01/05 05:29:14;;;;;;;0.50;0.10;;;5.20;1.00;;;;;;5093599;28;20817;-74
2022/01/05 05:31:42;;;;;;;0.97;0.97;;;5.20;1.00;;;;;;5102141;28;20453;-73
2022/01/05 05:34:10;;;;;;;0.50;0.20;;;5.30;1.00;;;;;;5116644;28;20882;-74
2022/01/05 05:36:38;;;;;;;0.50;0.10;;;5.30;1.00;;;;;;5114796;28;20974;-75
2022/01/05 05:39:05;;;;;;;0.70;0.20;;;5.20;1.00;;;;;;5113818;28;20451;-74
2022/01/05 05:41:33;;;;;;;1.30;1.20;;;5.10;1.00;;;;;;5111982;28;20513;-73
2022/01/05 05:44:01;;;;;;;0.70;0.43;;;5.10;1.00;;;;;;5112848;28;20437;-74
2022/01/05 05:46:30;;;;;;;1.00;0.30;;;6.50;1.00;;;;;;5109304;28;20468;-74
2022/01/05 05:48:58;;;;;;;0.60;0.33;;;5.00;1.00;;;;;;5113089;28;20980;-74
2022/01/05 05:51:26;;;;;;;0.50;0.10;;;4.90;1.00;;;;;;5093504;28;20445;-74
2022/01/05 05:53:54;;;;;;;0.50;0.20;;;4.90;1.00;;;;;;5098688;28;20998;-74
2022/01/05 05:56:22;;;;;;;0.50;0.17;;;4.80;1.00;;;;;;5100347;28;20468;-73
2022/01/05 05:58:50;;;;;;;2.50;0.50;;;4.80;1.00;;;;;;5115901;28;20547;-74
2022/01/05 06:01:18;;;;;;;0.50;0.20;;;4.80;1.00;;;;;;5109382;28;20830;-74
2022/01/05 06:03:48;;;;;;;0.93;0.87;;;4.70;1.00;;;;;;5113718;28;20443;-73
2022/01/05 06:06:16;;;;;;;0.73;0.57;;;4.70;1.00;;;;;;5110668;28;21311;-75
2022/01/05 06:08:44;;;;;;;0.50;0.10;;;4.70;1.00;;;;;;5095424;28;20557;-75
2022/01/05 06:11:12;;;;;;;1.53;1.13;;;4.70;1.00;;;;;;5108784;28;20823;-74
2022/01/05 06:13:40;;;;;;;0.50;0.20;;;4.80;1.00;;;;;;5112588;28;20453;-73
2022/01/05 06:16:07;;;;;;;0.70;0.50;;;4.80;1.00;;;;;;5112587;28;20484;-73
2022/01/05 06:18:35;;;;;;;0.50;0.20;;;4.80;1.00;;;;;;5113100;27;20445;-73
2022/01/05 06:21:05;;;;;;;0.50;0.10;;;4.80;1.00;;;;;;5113597;28;20440;-73
2022/01/05 06:23:32;;;;;;;0.50;0.10;;;4.90;1.00;;;;;;5112602;28;21062;-74
2022/01/05 06:26:00;;;;;;;0.70;0.20;;;4.90;1.00;;;;;;5106321;28;20499;-73
2022/01/05 06:28:28;;;;;;;0.50;0.10;;;4.90;1.00;;;;;;5110411;28;20924;-74
2022/01/05 06:30:56;;;;;;;0.50;0.10;;;4.90;1.00;;;;;;5112447;28;20958;-75
2022/01/05 06:33:24;;;;;;;0.50;0.10;;;5.00;1.00;;;;;;5112274;28;20454;-74
2022/01/05 06:35:52;;;;;;;0.53;0.30;;;5.00;1.00;;;;;;5109566;28;20503;-75
2022/01/05 06:38:21;;;;;;;0.50;0.10;;;4.90;1.00;;;;;;5112481;28;20535;-74
2022/01/05 06:40:49;;;;;;;0.57;0.30;;;5.00;1.00;;;;;;5112216;28;20456;-75
2022/01/05 06:43:17;;;;;;;1.70;1.60;;;5.00;1.00;;;;;;5107584;28;20456;-75
2022/01/05 06:45:45;;;;;;;0.60;0.50;;;4.90;1.00;;;;;;5107790;28;20471;-75
2022/01/05 06:48:13;;;;;;;0.50;0.20;;;4.90;1.00;;;;;;5100609;28;20442;-75
2022/01/05 06:50:41;;;;;;;3.50;0.73;;;4.70;1.00;;;;;;5107874;28;20440;-75
2022/01/05 06:53:09;;;;;;;0.50;0.10;;;4.70;1.00;;;;;;5110784;28;20485;-74
2022/01/05 06:55:38;;;;;;;0.50;0.10;;;4.60;1.00;;;;;;5113728;28;20490;-75
2022/01/05 06:58:06;;;;;;;1.50;0.50;;;4.60;1.00;;;;;;5108668;28;20441;-75
2022/01/05 07:00:34;;;;;;;0.50;0.20;;;4.50;1.00;;;;;;5116778;28;20444;-74
2022/01/05 07:03:02;;;;;;;1.20;1.10;;;4.50;1.00;;;;;;5116045;28;20534;-74
2022/01/05 07:05:30;;;;;;;0.50;0.10;;;4.50;1.00;;;;;;5120387;28;20499;-75
2022/01/05 07:07:58;;;;;;;0.50;0.10;;;4.50;1.00;;;;;;5124354;28;20439;-74
2022/01/05 07:10:25;;;;;;;0.50;0.10;;;4.50;1.00;;;;;;5122868;28;21034;-75
2022/01/05 07:12:55;;;;;;;0.50;0.10;;;4.50;1.00;;;;;;5123509;28;20444;-74
2022/01/05 07:15:23;;;;;;;0.70;0.30;;;4.50;1.00;;;;;;5119999;28;20489;-74
2022/01/05 07:17:51;;;;;;;0.60;0.30;;;4.40;1.00;;;;;;5121032;28;20476;-74
2022/01/05 07:20:19;;;;;;;0.73;0.43;;;4.40;1.00;;;;;;5122299;27;20476;-75
2022/01/05 07:22:47;;;;;;;0.50;0.20;;;4.30;1.00;;;;;;5122314;28;20438;-74
2022/01/05 07:25:15;;;;;;;0.50;0.10;;;4.20;1.00;;;;;;5122386;28;20475;-74
2022/01/05 07:27:43;;;;;;;0.60;0.30;;;4.20;1.00;;;;;;5121525;28;20437;-73
2022/01/05 07:30:13;;;;;;;0.60;0.40;;;4.20;1.00;;;;;;5120089;27;20451;-74
2022/01/05 07:32:41;;;;;;;1.00;0.90;;;4.20;1.00;;;;;;5121528;28;20445;-74
2022/01/05 07:35:09;;;;;;;0.50;0.20;;;4.20;1.00;;;;;;5122459;28;20868;-74
2022/01/05 07:37:37;;;;;;;0.50;0.10;;;4.10;1.00;;;;;;5125403;28;20478;-75
2022/01/05 07:40:06;;;;;;;0.50;0.10;;;4.10;1.00;;;;;;5125684;28;20510;-75
2022/01/05 07:42:35;;;;;;;0.60;0.30;;;4.00;1.00;;;;;;5123405;28;20444;-73
2022/01/05 07:45:05;;;;;;;0.60;0.30;;;4.00;1.00;;;;;;5123384;28;20521;-75
2022/01/05 07:47:34;;;;;;;0.50;0.10;;;4.00;1.00;;;;;;5121204;28;20446;-74
2022/01/05 07:50:03;;;;;;;0.50;0.10;;;4.10;1.00;;;;;;5121275;27;20432;-75
2022/01/05 07:52:31;;;;;;;2.40;0.93;;;4.10;1.00;;;;;;5123354;28;20515;-73
2022/01/05 07:55:01;;;;;;;0.50;0.10;;;4.10;1.00;;;;;;5120496;28;20485;-75
2022/01/05 07:57:29;;;;;;;0.60;0.43;;;4.10;1.00;;;;;;5118809;28;20428;-75
2022/01/05 07:59:57;;;;;;;1.13;1.03;;;4.10;1.00;;;;;;5116129;28;20929;-73
2022/01/05 08:02:25;;;;;;;0.50;0.10;;;4.00;1.00;;;;;;5115977;28;20452;-73
2022/01/05 08:04:54;;;;;;;0.77;0.70;;;3.90;1.00;;;;;;5115518;28;20463;-74
2022/01/05 08:07:22;;;;;;;0.50;0.20;;;3.90;1.00;;;;;;5114116;28;20444;-73
2022/01/05 08:09:50;;;;;;;3.07;2.17;;;3.90;1.00;;;;;;5115264;28;20446;-74
2022/01/05 08:12:18;;;;;;;0.60;0.50;;;3.00;1.00;;;;;;5115845;28;20450;-75
2022/01/05 08:14:45;;;;;;;0.50;0.10;;;3.80;1.00;;;;;;5115202;28;20473;-72
2022/01/05 08:17:14;;;;;;;0.50;0.10;;;3.80;1.00;;;;;;5115107;28;20486;-74
2022/01/05 08:19:42;;;;;;;0.57;0.27;;;3.80;1.00;;;;;;5115618;28;20452;-74
2022/01/05 08:22:11;;;;;;;0.60;0.40;;;3.80;1.00;;;;;;5116150;28;20935;-74
2022/01/05 08:24:51;;;;;;;0.60;0.40;;;3.80;1.00;;;;;;5116002;28;20461;-72
2022/01/05 08:27:19;;;;;;;0.50;0.20;;;3.90;1.00;;;;;;5116207;28;20442;-73
2022/01/05 08:29:47;;;;;;;1.03;0.30;;;3.90;1.00;;;;;;5116063;28;20464;-75
2022/01/05 08:32:15;;;;;;;5.23;1.43;;;3.90;1.00;;;;;;5117539;28;20468;-75
2022/01/05 08:34:42;;;;;;;3.13;1.10;;;3.90;1.00;;;;;;5115913;28;20976;-73
2022/01/05 08:37:12;;;;;;;2.07;1.10;;;3.80;1.00;;;;;;5115846;28;20480;-75
2022/01/05 08:39:39;;;;;;;1.83;0.57;;;3.80;1.00;;;;;;5114646;28;20442;-73
2022/01/05 08:42:08;;;;;;;0.50;0.20;;;3.80;1.00;;;;;;5115695;28;20616;-74
2022/01/05 08:44:37;;;;;;;6.13;0.70;;;3.70;1.00;;;;;;5115422;28;20444;-72
2022/01/05 08:47:07;;;;;;;1.47;1.17;;;3.70;1.00;;;;;;5116299;28;20960;-73
2022/01/05 08:49:35;;;;;;;0.50;0.10;;;3.70;1.00;;;;;;5115480;28;20466;-73
2022/01/05 08:52:04;;;;;;;0.97;0.50;;;3.80;1.00;;;;;;5115066;28;20447;-73
2022/01/05 08:54:33;;;;;;;0.50;0.20;;;3.80;1.00;;;;;;5115152;28;20444;-74
2022/01/05 08:57:01;;;;;;;0.83;0.43;;;3.80;1.00;;;;;;5115236;28;20470;-74
2022/01/05 08:59:29;;;;;;;0.60;0.40;;;3.90;1.00;;;;;;5115175;28;20819;-75
2022/01/05 09:01:57;;;;;;;1.37;0.97;;;3.90;1.00;;;;;;5115030;28;20453;-75
2022/01/05 09:04:26;;;;;;;1.77;1.67;;;4.00;1.00;;;;;;5109412;28;20943;-72
2022/01/05 09:06:54;;;;;;;0.50;0.10;;;4.00;1.00;;;;;;5103534;28;20431;-71
2022/01/05 09:09:24;;;;;;;4.00;0.40;;;4.00;1.00;;;;;;5092605;28;20842;-73
2022/01/05 09:11:53;;;;;;;0.50;0.10;;;4.10;1.00;;;;;;5093372;28;20448;-75
2022/01/05 09:14:21;;;;;;;1.20;0.40;;;4.10;1.00;;;;;;5105402;28;20462;-74
2022/01/05 09:16:49;;;;;;;0.50;0.10;;;;;;;;;;5116635;22;20484;-76
2022/01/05 09:19:17;;;;;;;0.60;0.43;;;4.30;1.00;;;;;;5081836;28;20876;-77
2022/01/05 09:21:48;;;;;;;0.50;0.10;;;4.30;1.00;;;;;;5095150;28;20960;-77
2022/01/05 09:24:39;;;;;;;0.50;0.10;;;4.40;1.00;;;;;;5094897;28;20441;-76
2022/01/05 09:27:08;;;;;;;2.90;1.23;;;4.50;1.00;;;;;;5113895;28;20880;-75
2022/01/05 09:29:40;;;;;;;0.50;0.20;;;4.60;1.00;;;;;;5114644;28;20469;-75
2022/01/05 09:32:09;;;;;;;0.70;0.40;;;4.60;1.00;;;;;;5115118;28;20496;-76
2022/01/05 09:34:38;;;;;;;0.60;0.57;;;4.60;1.00;;;;;;5115557;28;20436;-76
2022/01/05 09:37:11;;;;;;;1.00;0.80;;;;;;;;;;5115590;28;20571;-74
2022/01/05 09:42:26;;;;;;;0.60;0.23;;;4.30;1.00;;;;;;5115444;28;20446;-77
2022/01/05 09:44:55;;;;;;;5.93;1.47;;;4.20;1.00;;;;;;5114764;28;20935;-76
2022/01/05 09:47:39;;;;;;;1.00;0.53;;;4.20;1.00;;;;;;5114817;28;20784;-75
2022/01/05 09:50:10;;;;;;;0.57;0.20;;;4.20;1.00;;;;;;5115882;28;20557;-76
2022/01/05 09:52:39;;;;;;;1.07;0.50;;;4.20;1.00;;;;;;5114810;28;20447;-75
2022/01/05 09:55:10;;;;;;;1.00;0.30;;;4.20;1.00;;;;;;5114368;28;20912;-74
2022/01/05 09:57:42;;;;;;;0.60;0.30;;;4.30;1.00;;;;;;5114329;28;20569;-77
2022/01/05 10:00:13;;;;;;;0.73;0.37;;;4.30;1.00;;;;;;5114627;28;20449;-77
2022/01/05 10:02:42;;;;;;;0.50;0.20;;;4.20;1.00;;;;;;5114117;28;20448;-75
2022/01/05 10:05:11;;;;;;;3.80;3.03;;;4.20;1.00;;;;;;5114202;28;20486;-75
2022/01/05 10:07:41;;;;;;;0.70;0.40;;;4.20;1.00;;;;;;5113579;28;20448;-76
2022/01/05 10:10:10;;;;;;;1.80;1.70;;;4.10;1.00;;;;;;5114347;28;20481;-75
2022/01/05 10:12:40;;;;;;;0.60;0.23;;;4.10;1.00;;;;;;5114629;28;20879;-76
2022/01/05 10:15:14;;;;;;;0.60;0.20;;;4.30;1.00;;;;;;5112920;28;20430;-75
2022/01/05 10:17:42;;;;;;;0.60;0.33;;;4.30;1.00;;;;;;5113672;28;20480;-76
2022/01/05 10:20:12;;;;;;;0.60;0.20;;;4.30;1.00;;;;;;5113680;28;20442;-76
2022/01/05 10:22:43;;;;;;;0.67;0.37;;;4.30;1.00;;;;;;5114220;28;20445;-76
2022/01/05 10:25:16;;;;;;;1.07;0.93;;;4.20;1.00;;;;;;5114419;28;20512;-77
2022/01/05 10:27:55;;;;;;;0.60;0.23;;;4.20;1.00;;;;;;5115387;28;20888;-76
2022/01/05 10:30:35;;;;;;;0.60;0.20;;;4.20;1.00;;;;;;5114192;28;20538;-76
2022/01/05 10:33:03;;;;;;;3.53;2.67;;;4.20;1.00;;;;;;5113648;28;20476;-76
2022/01/05 10:35:31;;;;;;;0.50;0.10;;;4.30;1.00;;;;;;5114108;28;20450;-76
2022/01/05 10:38:01;;;;;;;0.90;0.77;;;4.30;1.00;;;;;;5113692;28;20487;-76
2022/01/05 10:40:30;;;;;;;3.00;0.77;;;;;;;;;;5115349;28;20547;-76
2022/01/05 10:42:59;;;;;;;0.97;0.20;;;4.40;1.00;;;;;;5114301;28;20890;-76
2022/01/05 10:45:40;;;;;;;0.60;0.30;;;4.40;1.00;;;;;;5114087;28;20976;-77
2022/01/05 10:48:11;;;;;;;1.07;0.63;;;4.50;1.00;;;;;;5113910;28;21021;-77
2022/01/05 10:50:39;;;;;;;0.90;0.47;;;4.50;1.00;;;;;;5114461;28;20484;-76
2022/01/05 10:53:08;;;;;;;0.50;0.10;;;4.60;1.00;;;;;;5114068;28;20428;-76
2022/01/05 10:55:41;;;;;;;0.60;0.53;;;4.60;1.00;;;;;;5114443;28;20624;-74
2022/01/05 10:58:12;;;;;;;0.53;0.10;;;4.60;1.00;;;;;;5114346;28;20630;-76
2022/01/05 11:00:43;;;;;;;0.60;0.40;;;4.70;1.00;;;;;;5114304;28;20481;-76
2022/01/05 11:03:23;;;;;;;0.50;0.10;;;4.80;1.00;;;;;;5113406;28;20433;-76
2022/01/05 11:06:05;;;;;;;0.60;0.20;;;4.90;1.00;;;;;;5112182;28;20557;-77
2022/01/05 11:08:34;;;;;;;0.50;0.10;;;4.90;1.00;;;;;;5107087;28;20447;-76
2022/01/05 11:11:02;;;;;;;0.60;0.10;;;5.00;1.00;;;;;;5110418;28;20437;-76
2022/01/05 11:13:31;;;;;;;0.50;0.10;;;5.00;1.00;;;;;;5118407;28;20443;-75
2022/01/05 11:16:00;;;;;;;0.50;0.20;;;5.10;1.00;;;;;;5119175;28;20551;-76
2022/01/05 11:18:31;;;;;;;0.50;0.20;;;5.10;1.00;;;;;;5112308;28;21037;-76
2022/01/05 11:21:02;;;;;;;2.30;0.30;;;5.10;1.00;;;;;;5136241;28;20440;-77
2022/01/05 11:23:32;;;;;;;0.50;0.10;;;5.00;1.00;;;;;;5135027;28;20453;-75
2022/01/05 11:26:02;;;;;;;0.50;0.20;;;5.00;1.00;;;;;;5133914;28;21071;-76
2022/01/05 11:28:31;;;;;;;0.50;0.10;;;5.00;1.00;;;;;;5110658;28;20536;-74
2022/01/05 11:30:59;;;;;;;0.60;0.10;;;5.00;1.00;;;;;;5092897;28;20440;-76
2022/01/05 11:33:28;;;;;;;0.60;0.20;;;4.50;1.00;;;;;;5123714;28;20972;-74
2022/01/05 11:35:58;;;;;;;0.60;0.50;;;4.90;1.00;;;;;;5134562;28;20847;-76
2022/01/05 11:38:26;;;;;;;0.50;0.10;;;4.90;1.00;;;;;;5113263;28;20477;-75
2022/01/05 11:40:55;;;;;;;0.60;0.20;;;4.90;1.00;;;;;;5094316;28;20950;-75
2022/01/05 11:43:26;;;;;;;1.37;1.27;;;4.90;1.00;;;;;;5097408;28;20441;-75
2022/01/05 11:45:56;;;;;;;3.60;1.27;;;4.90;1.00;;;;;;5098308;28;20474;-76
2022/01/05 11:48:27;;;;;;;0.70;0.20;;;4.90;1.00;;;;;;5106724;28;20447;-75
2022/01/05 11:50:57;;;;;;;0.60;0.20;;;4.90;1.00;;;;;;5116485;28;20543;-74
2022/01/05 11:53:38;;;;;;;5.53;1.60;;;4.90;1.00;;;;;;5098611;28;20452;-74
2022/01/05 11:56:09;;;;;;;3.23;2.93;;;4.90;1.00;;;;;;5096088;28;20847;-74
2022/01/05 11:58:48;;;;;;;6.03;0.60;;;4.90;1.00;;;;;;5107680;28;20512;-76
2022/01/05 12:01:27;;;;;;;1.87;0.43;;;4.90;1.00;;;;;;5116357;28;20500;-76
2022/01/05 12:04:15;;;;;;;3.23;0.40;;;4.90;1.00;;;;;;5116202;28;20438;-76
2022/01/05 12:07:08;;;;;;;0.90;0.87;;;4.90;1.00;;;;;;5116326;28;20454;-74
2022/01/05 12:09:41;;;;;;;1.27;0.80;;;5.00;1.00;;;;;;5099798;28;20943;-76
2022/01/05 12:12:29;;;;;;;0.77;0.40;;;5.10;1.00;;;;;;5100804;28;20810;-74
2022/01/05 12:14:58;;;;;;;0.50;0.10;;;5.10;1.00;;;;;;5104175;28;20464;-76
2022/01/05 12:17:28;;;;;;;0.80;0.30;;;5.10;1.00;;;;;;5104555;28;20440;-75
2022/01/05 12:20:06;;;;;;;1.43;0.90;;;5.20;1.00;;;;;;5112823;27;20439;-75
2022/01/05 12:22:34;;;;;;;0.60;0.20;;;5.10;1.00;;;;;;5113822;27;20455;-75
2022/01/05 12:25:17;;;;;;;0.60;0.27;;;5.10;1.00;;;;;;5115671;27;20478;-76
2022/01/05 12:28:02;;;;;;;1.00;0.43;;;5.10;1.00;;;;;;5110146;27;20980;-76
2022/01/05 12:30:42;;;;;;;0.60;0.20;;;5.10;1.00;;;;;;5104963;28;20440;-75
2022/01/05 12:33:18;;;;;;;1.73;0.90;;;5.20;1.00;;;;;;5107771;28;20532;-75
2022/01/05 12:35:58;;;;;;;0.60;0.10;;;5.20;1.00;;;;;;5100886;28;20461;-75
2022/01/05 12:38:38;;;;;;;0.90;0.20;;;5.30;1.00;;;;;;5105033;28;21011;-76
2022/01/05 12:41:36;;;;;;;1.27;0.77;;;5.20;1.00;;;;;;5102713;28;20433;-76
2022/01/05 12:44:43;;;;;;;0.50;0.20;;;5.20;1.00;;;;;;5105852;27;20451;-76
2022/01/05 12:47:13;;;;;;;1.03;0.50;;;5.20;1.00;;;;;;5103120;27;20459;-75
2022/01/05 12:49:42;;;;;;;0.70;0.40;;;5.20;1.00;;;;;;5107651;27;21176;-75
2022/01/05 12:52:14;;;;;;;0.90;0.70;;;5.10;1.00;;;;;;5109366;27;20445;-75
2022/01/05 12:54:44;;;;;;;28.00;1.00;;;5.10;1.00;;;;;;5113808;28;20438;-75
2022/01/05 12:57:15;;;;;;;26.47;1.77;;;5.10;1.00;;;;;;5112281;28;20469;-75
2022/01/05 12:59:47;;;;;;;26.60;0.70;;;5.10;1.00;;;;;;5100475;28;20501;-76
2022/01/05 13:02:19;;;;;;;26.40;0.40;;;5.10;1.00;;;;;;5114456;28;20455;-76
2022/01/05 13:04:49;;;;;;;25.80;0.40;;;5.10;1.00;;;;;;5113520;28;20448;-76
2022/01/05 13:07:18;;;;;;;27.87;0.80;;;5.20;1.00;;;;;;5102681;28;20815;-76
2022/01/05 13:09:49;;;;;;;24.97;0.40;;;5.20;1.00;;;;;;5112483;28;20531;-75
2022/01/05 13:12:19;;;;;;;25.30;0.70;;;5.20;1.00;;;;;;5114567;28;20439;-76
2022/01/05 13:14:48;;;;;;;26.00;1.60;;;5.30;1.00;;;;;;5104363;28;21006;-75
2022/01/05 13:17:19;;;;;;;25.00;0.40;;;5.30;1.00;;;;;;5107560;28;20485;-75
2022/01/05 13:19:53;;;;;;;25.37;0.50;;;5.20;1.00;;;;;;5106371;28;20480;-75
2022/01/05 13:22:24;;;;;;;25.77;1.43;;;5.20;1.00;;;;;;5114732;28;20552;-76
2022/01/05 13:25:05;;;;;;;26.23;1.07;;;5.20;1.00;;;;;;5114049;28;20430;-75